Time;durP1;ratioP1;P1;durP2;ratioP2;P2;SDS_P1;SDS_P2;PMS_P1;PMS_P2;Temp;Humidity;BMP_temperature;BMP_pressure;BME280_temperature;BME280_humidity;BME280_pressure;Samples;Min_cycle;Max_cycle;Signal;HPM_P1;HPM_P2
2022/05/19 00:02:13;;;;;;;;;;;;;;;18.07;67.42;101683.47;6126941;23;19912;-74
2022/05/19 00:04:38;;;;;;;;;;;;;;;18.04;67.77;101680.94;6127309;23;19915;-73
2022/05/19 00:07:06;;;;;;;;;;;;;;;18.03;65.43;101678.31;6103543;23;19940;-74
2022/05/19 00:09:31;;;;;;;;;;;;;;;18.02;65.76;101680.13;6127891;23;19986;-74
2022/05/19 00:11:58;;;;;;;;;;;;;;;18.00;67.22;101671.31;6128373;23;19909;-74
2022/05/19 00:14:24;;;;;;;;;;;;;;;17.99;65.50;101665.16;6127764;23;19909;-74
2022/05/19 00:16:49;;;;;;;;;;;;;;;17.98;66.24;101659.91;6128577;23;19913;-74
2022/05/19 00:19:15;;;;;;;;;;;;;;;17.96;66.05;101672.34;6103393;23;20059;-74
2022/05/19 00:21:41;;;;;;;;;;;;;;;17.93;65.79;101665.34;6103570;23;20196;-74
2022/05/19 00:24:07;;;;;;;;;;;;;;;17.90;66.16;101654.84;6103964;23;20241;-73
2022/05/19 00:26:33;;;;;;;;;;;;;;;17.88;66.86;101656.63;6104380;23;20299;-74
2022/05/19 00:28:58;;;;;;;;;;;;;;;17.84;66.10;101661.16;6128505;23;20189;-73
2022/05/19 00:31:23;;;;;;;;;;;;;;;17.83;66.15;101655.91;6128081;23;19905;-74
2022/05/19 00:33:49;;;;;;;;;;;;;;;17.80;67.18;101640.94;6102663;23;20003;-74
2022/05/19 00:36:16;;;;;;;;;;;;;;;17.80;66.71;101648.00;6104087;23;19912;-75
2022/05/19 00:38:42;;;;;;;;;;;;;;;17.80;66.84;101642.72;6128749;23;19916;-75
2022/05/19 00:41:09;;;;;;;;;;;;;;;17.76;67.75;101635.78;6127895;23;20323;-74
2022/05/19 00:43:36;;;;;;;;;;;;;;;17.74;67.52;101643.78;6128788;23;19919;-74
2022/05/19 00:46:05;;;;;;;;;;;;;;;17.72;68.27;101636.78;6128339;23;19912;-74
2022/05/19 00:48:57;;;;;;;;;;;;;;;17.71;67.59;101635.88;6126860;23;19908;-75
2022/05/19 00:51:33;;;;;;;;;;;;;;;17.70;67.60;101630.63;6121335;23;19932;-74
2022/05/19 00:53:59;;;;;;;;;;;;;;;17.67;67.77;101624.53;6126824;23;19908;-75
2022/05/19 00:56:32;;;;;;;;;;;;;;;17.66;67.88;101625.44;6104644;23;20224;-74
2022/05/19 00:59:08;;;;;;;;;;;;;;;17.63;68.43;101620.22;6128162;23;20267;-74
2022/05/19 01:01:35;;;;;;;;;;;;;;;17.62;67.88;101617.63;6128482;23;19909;-74
2022/05/19 01:04:06;;;;;;;;;;;;;;;17.59;68.58;101613.28;6126321;23;20354;-75
2022/05/19 01:06:33;;;;;;;;;;;;;;;17.58;68.02;101619.47;6128460;23;19963;-74
2022/05/19 01:09:01;;;;;;;;;;;;;;;17.56;68.49;101617.81;6128674;23;20242;-74
2022/05/19 01:11:26;;;;;;;;;;;;;;;17.55;67.99;101619.56;6128477;23;19924;-75
2022/05/19 01:13:51;;;;;;;;;;;;;;;17.52;68.98;101617.00;6103786;23;19913;-74
2022/05/19 01:16:18;;;;;;;;;;;;;;;17.52;69.07;101616.16;6103671;23;19928;-74
2022/05/19 01:18:43;;;;;;;;;;;;;;;17.48;68.48;101605.66;6152225;23;19917;-74
2022/05/19 01:21:11;;;;;;;;;;;;;;;17.46;68.88;101601.28;6098077;23;19925;-75
2022/05/19 01:23:56;;;;;;;;;;;;;;;17.45;68.71;101588.94;6123497;23;19923;-74
2022/05/19 01:26:28;;;;;;;;;;;;;;;17.43;68.53;101596.09;6108529;23;20246;-74
2022/05/19 01:28:54;;;;;;;;;;;;;;;17.39;68.53;101589.13;6122817;23;19973;-74
2022/05/19 01:31:38;;;;;;;;;;;;;;;17.36;69.21;101583.94;6123095;23;19918;-74
2022/05/19 01:34:05;;;;;;;;;;;;;;;17.31;69.17;101576.97;6122048;23;19916;-75
2022/05/19 01:36:30;;;;;;;;;;;;;;;17.28;69.19;101579.72;6123154;23;19916;-74
2022/05/19 01:39:00;;;;;;;;;;;;;;;17.25;69.35;101563.88;6098692;23;19917;-74
2022/05/19 01:41:43;;;;;;;;;;;;;;;17.20;69.90;101565.81;6123070;23;20239;-74
2022/05/19 01:44:28;;;;;;;;;;;;;;;17.17;69.88;101579.16;6123077;23;20323;-74
2022/05/19 01:47:02;;;;;;;;;;;;;;;17.13;70.00;101574.84;6122827;23;19917;-74
2022/05/19 01:49:33;;;;;;;;;;;;;;;17.09;69.36;101570.53;6121106;23;19916;-74
2022/05/19 01:52:02;;;;;;;;;;;;;;;17.06;68.93;101565.31;6123266;23;20358;-74
2022/05/19 01:54:35;;;;;;;;;;;;;;;17.03;70.31;101562.75;6123524;23;19916;-75
2022/05/19 01:57:02;;;;;;;;;;;;;;;17.01;70.28;101561.91;6123443;23;20259;-75
2022/05/19 01:59:55;;;;;;;;;;;;;;;16.97;69.75;101562.00;6122854;23;19944;-74
2022/05/19 02:02:27;;;;;;;;;;;;;;;16.94;70.50;101564.75;6120513;23;19964;-75
2022/05/19 02:04:56;;;;;;;;;;;;;;;16.92;70.19;101557.75;6122969;23;19912;-74
2022/05/19 02:07:22;;;;;;;;;;;;;;;16.89;71.48;101563.97;6123403;23;20371;-75
2022/05/19 02:10:14;;;;;;;;;;;;;;;16.84;71.61;101557.94;6098188;23;19963;-75
2022/05/19 02:12:40;;;;;;;;;;;;;;;16.82;74.44;101551.78;6119390;23;19929;-75
2022/05/19 02:15:08;;;;;;;;;;;;;;;16.81;73.08;101555.38;6098411;23;20000;-78
2022/05/19 02:17:34;;;;;;;;;;;;;;;16.85;76.46;101557.03;6122429;23;19916;-76
2022/05/19 02:20:03;;;;;;;;;;;;;;;16.90;75.58;101552.50;6124513;23;20327;-75
2022/05/19 02:22:34;;;;;;;;;;;;;;;16.95;75.96;101550.59;6127887;23;19916;-76
2022/05/19 02:25:04;;;;;;;;;;;;;;;16.96;75.68;101554.09;6128277;23;19917;-76
2022/05/19 02:27:31;;;;;;;;;;;;;;;16.97;75.63;101546.13;6127077;23;19979;-77
2022/05/19 02:29:57;;;;;;;;;;;;;;;16.97;75.43;101545.28;6128072;23;19913;-77
2022/05/19 02:32:22;;;;;;;;;;;;;;;16.96;75.39;101554.97;6127626;23;19964;-75
2022/05/19 02:34:47;;;;;;;;;;;;;;;16.95;76.99;101550.59;6127502;23;19909;-75
2022/05/19 02:37:13;;;;;;;;;;;;;;;16.97;75.94;101556.72;6103647;23;19916;-75
2022/05/19 02:39:39;;;;;;;;;;;;;;;17.01;75.80;101556.63;6103008;23;19916;-74
2022/05/19 02:42:05;;;;;;;;;;;;;;;17.02;75.87;101558.38;6126190;23;19912;-75
2022/05/19 02:44:30;;;;;;;;;;;;;;;17.02;76.25;101558.38;6127911;23;19908;-76
2022/05/19 02:46:56;;;;;;;;;;;;;;;17.01;76.17;101568.09;6127676;23;19917;-75
2022/05/19 02:49:22;;;;;;;;;;;;;;;17.01;76.60;101565.47;6102318;23;20258;-75
2022/05/19 02:51:48;;;;;;;;;;;;;;;17.03;76.25;101570.72;6127129;23;19912;-75
2022/05/19 02:54:13;;;;;;;;;;;;;;;17.04;75.61;101575.97;6103514;23;19913;-75
2022/05/19 02:56:38;;;;;;;;;;;;;;;17.06;75.74;101575.91;6103469;23;19912;-75
2022/05/19 02:59:04;;;;;;;;;;;;;;;17.08;74.00;101579.38;6102512;23;20014;-75
2022/05/19 03:01:29;;;;;;;;;;;;;;;17.09;75.01;101583.78;6102785;23;19996;-75
2022/05/19 03:03:54;;;;;;;;;;;;;;;17.07;73.20;101575.88;6126936;23;19958;-75
2022/05/19 03:06:20;;;;;;;;;;;;;;;17.07;73.94;101577.66;6103400;23;19991;-75
2022/05/19 03:08:45;;;;;;;;;;;;;;;17.10;74.11;101583.72;6103208;23;19922;-74
2022/05/19 03:11:10;;;;;;;;;;;;;;;17.09;74.10;101581.97;6103492;23;19991;-75
2022/05/19 03:13:36;;;;;;;;;;;;;;;17.12;73.13;101586.34;6102895;23;19947;-74
2022/05/19 03:16:05;;;;;;;;;;;;;;;17.16;73.99;101605.66;6103873;23;19999;-75
2022/05/19 03:18:30;;;;;;;;;;;;;;;17.19;73.14;101704.44;6125004;23;19951;-75
2022/05/19 03:20:55;;;;;;;;;;;;;;;17.24;71.96;101699.00;6103038;23;19925;-74
2022/05/19 03:23:21;;;;;;;;;;;;;;;17.31;73.12;101720.03;6126137;23;19936;-78
2022/05/19 03:25:46;;;;;;;;;;;;;;;17.40;72.99;101691.56;6127820;23;20027;-73
2022/05/19 03:28:12;;;;;;;;;;;;;;;17.56;72.95;101723.81;6126616;23;19928;-79
2022/05/19 03:30:38;;;;;;;;;;;;;;;17.67;72.00;101727.91;6103437;23;19963;-76
2022/05/19 03:33:03;;;;;;;;;;;;;;;17.81;71.47;101719.56;6102222;23;20239;-78
2022/05/19 03:35:28;;;;;;;;;;;;;;;17.96;71.66;101713.00;6127131;23;19943;-75
2022/05/19 03:37:54;;;;;;;;;;;;;;;18.06;71.64;101733.91;6126460;23;19936;-75
2022/05/19 03:40:19;;;;;;;;;;;;;;;18.13;71.57;101736.38;6103155;23;20247;-76
2022/05/19 03:42:45;;;;;;;;;;;;;;;18.20;71.43;101722.91;6102582;23;20363;-75
2022/05/19 03:45:10;;;;;;;;;;;;;;;18.24;70.89;101720.13;6127576;23;19909;-75
2022/05/19 03:47:36;;;;;;;;;;;;;;;18.27;71.06;101720.03;6126785;23;20245;-74
2022/05/19 03:50:01;;;;;;;;;;;;;;;18.34;71.20;101729.53;6126089;23;19955;-75
2022/05/19 03:52:26;;;;;;;;;;;;;;;18.38;71.11;101724.16;6126473;23;19912;-74
2022/05/19 03:54:54;;;;;;;;;;;;;;;18.41;70.74;101732.03;6103270;23;19912;-75
2022/05/19 03:57:21;;;;;;;;;;;;;;;18.45;70.98;101741.63;6126106;23;19915;-75
2022/05/19 03:59:47;;;;;;;;;;;;;;;18.47;70.93;101745.97;6102144;23;19920;-74
2022/05/19 04:02:12;;;;;;;;;;;;;;;18.49;70.98;101745.94;6102203;23;19935;-75
2022/05/19 04:04:37;;;;;;;;;;;;;;;18.50;70.98;101729.06;6102286;23;19982;-74
2022/05/19 04:07:03;;;;;;;;;;;;;;;18.50;70.93;101734.38;6102380;23;19946;-74
2022/05/19 04:09:28;;;;;;;;;;;;;;;18.49;70.82;101732.66;6127196;23;20239;-74
2022/05/19 04:11:54;;;;;;;;;;;;;;;18.49;70.85;101714.09;6102288;23;19916;-75
2022/05/19 04:14:19;;;;;;;;;;;;;;;18.48;70.87;101723.81;6101564;23;19913;-74
2022/05/19 04:16:45;;;;;;;;;;;;;;;18.48;70.93;101744.19;6102394;23;19997;-75
2022/05/19 04:19:10;;;;;;;;;;;;;;;18.50;71.16;101747.66;6099778;23;19939;-72
2022/05/19 04:21:36;;;;;;;;;;;;;;;18.47;71.35;101740.66;6125782;23;19953;-72
2022/05/19 04:24:02;;;;;;;;;;;;;;;18.45;71.38;101742.50;6126543;23;19932;-72
2022/05/19 04:26:27;;;;;;;;;;;;;;;18.43;71.68;101740.78;6101980;23;20396;-72
2022/05/19 04:28:53;;;;;;;;;;;;;;;18.41;71.72;101742.63;6152288;23;19919;-72
2022/05/19 04:31:20;;;;;;;;;;;;;;;18.40;71.75;101738.25;6101734;23;19920;-72
2022/05/19 04:33:45;;;;;;;;;;;;;;;18.39;72.10;101724.13;6126063;23;19992;-72
2022/05/19 04:36:11;;;;;;;;;;;;;;;18.40;72.00;101728.47;6101584;23;19940;-73
2022/05/19 04:38:36;;;;;;;;;;;;;;;18.39;72.37;101732.06;6102165;23;19960;-72
2022/05/19 04:41:03;;;;;;;;;;;;;;;18.41;72.50;101734.69;6126629;23;19915;-72
2022/05/19 04:43:29;;;;;;;;;;;;;;;18.44;72.34;101730.13;6126973;23;20357;-72
2022/05/19 04:45:55;;;;;;;;;;;;;;;18.49;72.46;101727.38;6101601;23;20324;-72
2022/05/19 04:48:21;;;;;;;;;;;;;;;18.57;72.58;101722.66;6126613;23;19987;-72
2022/05/19 04:50:49;;;;;;;;;;;;;;;18.64;72.48;101726.00;6103267;23;19971;-72
2022/05/19 04:53:15;;;;;;;;;;;;;;;18.70;72.51;101725.78;6128442;23;19908;-72
2022/05/19 04:55:40;;;;;;;;;;;;;;;18.77;72.51;101726.47;6103947;23;19913;-72
2022/05/19 04:58:06;;;;;;;;;;;;;;;18.84;72.31;101723.56;6104036;23;19961;-72
2022/05/19 05:00:31;;;;;;;;;;;;;;;18.89;72.19;101727.91;6127868;23;20332;-72
2022/05/19 05:02:57;;;;;;;;;;;;;;;18.94;72.21;101729.50;6102141;23;19924;-72
2022/05/19 05:05:23;;;;;;;;;;;;;;;18.99;72.12;101734.63;6102611;23;19983;-72
2022/05/19 05:07:48;;;;;;;;;;;;;;;19.03;72.06;101734.47;6103933;23;20007;-72
2022/05/19 05:10:13;;;;;;;;;;;;;;;19.07;71.96;101724.63;6103452;23;19917;-73
2022/05/19 05:12:39;;;;;;;;;;;;;;;19.11;72.17;101720.09;6128748;23;19940;-72
2022/05/19 05:15:04;;;;;;;;;;;;;;;19.13;71.97;101735.06;6128797;23;19908;-72
2022/05/19 05:17:30;;;;;;;;;;;;;;;19.17;71.81;101718.09;6127350;23;19935;-72
2022/05/19 05:19:55;;;;;;;;;;;;;;;19.21;70.59;101717.06;6104011;23;19930;-72
2022/05/19 05:22:20;;;;;;;;;;;;;;;19.26;71.32;101713.41;6127638;23;19917;-72
2022/05/19 05:24:46;;;;;;;;;;;;;;;19.29;71.25;101718.59;6128525;23;19913;-72
2022/05/19 05:27:11;;;;;;;;;;;;;;;19.31;71.21;101712.31;6102242;23;19916;-73
2022/05/19 05:29:36;;;;;;;;;;;;;;;19.35;71.11;101705.09;6103470;23;20243;-73
2022/05/19 05:32:03;;;;;;;;;;;;;;;19.38;71.26;101703.22;6103648;23;20300;-73
2022/05/19 05:34:29;;;;;;;;;;;;;;;19.40;71.19;101697.84;6101919;23;19917;-73
2022/05/19 05:36:54;;;;;;;;;;;;;;;19.43;71.03;101686.25;6127849;23;19920;-73
2022/05/19 05:39:20;;;;;;;;;;;;;;;19.44;70.84;101674.66;6103211;23;19913;-73
2022/05/19 05:41:45;;;;;;;;;;;;;;;19.44;70.46;101664.03;6103578;23;19931;-74
2022/05/19 05:44:11;;;;;;;;;;;;;;;19.41;69.84;101674.78;6127487;23;19940;-75
2022/05/19 05:46:37;;;;;;;;;;;;;;;19.33;69.80;101673.25;6103534;23;19921;-74
2022/05/19 05:49:02;;;;;;;;;;;;;;;19.27;69.84;101670.81;6125931;23;19908;-75
2022/05/19 05:51:27;;;;;;;;;;;;;;;19.24;68.88;101656.75;6127199;23;19908;-75
2022/05/19 05:53:53;;;;;;;;;;;;;;;19.22;68.05;101675.41;6103480;23;20228;-73
2022/05/19 05:56:19;;;;;;;;;;;;;;;19.06;68.81;101674.22;6128251;23;19916;-74
2022/05/19 05:58:45;;;;;;;;;;;;;;;19.15;69.81;101631.38;6103875;23;19912;-74
2022/05/19 06:01:11;;;;;;;;;;;;;;;18.80;69.75;101629.00;6104202;23;19919;-72
2022/05/19 06:03:37;;;;;;;;;;;;;;;18.59;71.07;101619.09;6126487;23;19979;-71
2022/05/19 06:06:05;;;;;;;;;;;;;;;18.51;71.40;101652.06;6125970;23;19912;-72
2022/05/19 06:08:31;;;;;;;;;;;;;;;18.46;70.71;101640.75;6102717;23;19920;-71
2022/05/19 06:10:56;;;;;;;;;;;;;;;18.46;70.36;101614.22;6103754;23;19917;-71
2022/05/19 06:13:24;;;;;;;;;;;;;;;18.45;69.96;101598.34;6127849;23;20227;-73
2022/05/19 06:15:49;;;;;;;;;;;;;;;18.44;71.28;101597.44;6103315;23;19920;-71
2022/05/19 06:18:15;;;;;;;;;;;;;;;18.45;71.50;101608.94;6102804;23;19913;-72
2022/05/19 06:20:40;;;;;;;;;;;;;;;18.47;71.72;101629.19;6102925;23;19925;-71
2022/05/19 06:23:06;;;;;;;;;;;;;;;18.55;72.11;101634.28;6103053;23;19912;-71
2022/05/19 06:25:32;;;;;;;;;;;;;;;18.62;72.29;101637.56;6103460;23;19913;-71
2022/05/19 06:27:59;;;;;;;;;;;;;;;18.66;72.13;101648.06;6126423;23;20039;-72
2022/05/19 06:30:26;;;;;;;;;;;;;;;18.67;73.21;101656.88;6103991;23;19948;-72
2022/05/19 06:32:51;;;;;;;;;;;;;;;18.64;70.93;101643.72;6127210;23;19975;-72
2022/05/19 06:35:19;;;;;;;;;;;;;;;18.68;70.59;101632.06;6126159;23;19912;-73
2022/05/19 06:37:45;;;;;;;;;;;;;;;18.70;69.91;101619.59;6126495;23;20319;-74
2022/05/19 06:40:10;;;;;;;;;;;;;;;18.72;71.46;101622.22;6103333;23;20013;-73
2022/05/19 06:42:37;;;;;;;;;;;;;;;18.73;73.55;101618.66;6127297;23;20405;-72
2022/05/19 06:45:04;;;;;;;;;;;;;;;18.70;71.68;101611.66;6127285;23;19905;-73
2022/05/19 06:47:29;;;;;;;;;;;;;;;18.73;70.16;101613.34;6102898;23;19928;-73
2022/05/19 06:49:55;;;;;;;;;;;;;;;18.76;72.87;101613.22;6101861;23;20283;-74
2022/05/19 06:52:22;;;;;;;;;;;;;;;18.80;73.10;101617.50;6103498;23;19992;-73
2022/05/19 06:54:48;;;;;;;;;;;;;;;18.80;72.72;101621.03;6127324;23;19934;-73
2022/05/19 06:57:13;;;;;;;;;;;;;;;18.83;72.29;101614.75;6128009;23;20335;-73
2022/05/19 06:59:39;;;;;;;;;;;;;;;18.88;72.08;101610.19;6126449;23;19940;-75
2022/05/19 07:02:05;;;;;;;;;;;;;;;18.96;72.38;101615.22;6103709;23;20334;-72
2022/05/19 07:04:32;;;;;;;;;;;;;;;19.03;71.30;101606.13;6101477;23;20007;-75
2022/05/19 07:06:57;;;;;;;;;;;;;;;19.10;69.76;101617.41;6067355;23;20268;-74
2022/05/19 07:09:22;;;;;;;;;;;;;;;19.11;71.15;101625.34;6068231;23;19974;-73
2022/05/19 07:11:48;;;;;;;;;;;;;;;19.13;71.43;101612.00;6045007;23;20252;-74
2022/05/19 07:14:14;;;;;;;;;;;;;;;19.18;70.28;101621.53;6067511;23;19910;-74
2022/05/19 07:16:41;;;;;;;;;;;;;;;19.27;69.81;101614.16;6043872;23;20050;-74
2022/05/19 07:21:50;;;;;;;;;;;;;;;19.38;69.88;101609.34;6092246;23;19961;-73
2022/05/19 07:24:17;;;;;;;;;;;;;;;19.45;70.58;101596.66;6041590;23;19941;-76
2022/05/19 07:26:50;;;;;;;;;;;;;;;19.54;69.61;101599.00;6068044;23;20300;-76
2022/05/19 07:29:16;;;;;;;;;;;;;;;19.60;70.46;101600.56;6068364;23;19910;-75
2022/05/19 07:31:42;;;;;;;;;;;;;;;19.60;70.24;101585.47;6068229;23;19932;-74
2022/05/19 07:34:08;;;;;;;;;;;;;;;19.64;71.05;101572.91;6066984;23;20235;-75
2022/05/19 07:36:34;;;;;;;;;;;;;;;19.76;69.43;101559.16;6066458;23;19917;-76
2022/05/19 07:39:00;;;;;;;;;;;;;;;19.87;69.27;101566.75;6066359;23;19932;-75
2022/05/19 07:41:28;;;;;;;;;;;;;;;20.04;70.58;101564.28;6068528;23;19992;-74
2022/05/19 07:43:54;;;;;;;;;;;;;;;20.29;71.03;101589.06;6061200;23;19920;-76
2022/05/19 07:46:19;;;;;;;;;;;;;;;20.39;70.73;101607.22;6102429;23;20001;-76
2022/05/19 07:48:45;;;;;;;;;;;;;;;20.38;71.40;101620.59;6101657;23;19959;-75
2022/05/19 07:51:10;;;;;;;;;;;;;;;20.33;70.69;101620.78;6127639;23;20082;-74
2022/05/19 07:53:36;;;;;;;;;;;;;;;20.36;71.55;101627.78;6102348;23;19912;-74
2022/05/19 07:56:01;;;;;;;;;;;;;;;20.38;70.31;101616.13;6127452;23;19920;-76
2022/05/19 07:58:29;;;;;;;;;;;;;;;20.51;70.14;101623.63;6126970;23;19935;-76
2022/05/19 08:00:54;;;;;;;;;;;;;;;20.73;68.13;101619.19;6126745;23;19915;-78
2022/05/19 08:03:21;;;;;;;;;;;;;;;20.95;68.74;101607.63;6102116;23;19913;-75
2022/05/19 08:05:46;;;;;;;;;;;;;;;21.19;68.26;101599.47;6126811;23;19909;-77
2022/05/19 08:08:11;;;;;;;;;;;;;;;21.43;67.27;101601.06;6102536;23;19917;-77
2022/05/19 08:10:37;;;;;;;;;;;;;;;21.77;66.74;101591.50;6101964;23;19963;-76
2022/05/19 08:15:47;;;;;;;;;;;;;;;22.73;65.01;101594.88;6152642;23;19915;-78
2022/05/19 08:18:13;;;;;;;;;;;;;;;23.35;64.43;101584.53;6101451;23;19989;-77
2022/05/19 08:20:44;;;;;;;;;;;;;;;24.26;62.96;101584.00;6125312;23;19919;-78
2022/05/19 08:23:13;;;;;;;;;;;;;;;25.16;59.91;101586.78;6126917;23;19916;-77
2022/05/19 08:25:38;;;;;;;;;;;;;;;25.57;57.93;101581.53;6153402;23;19935;-77
2022/05/19 08:28:04;;;;;;;;;;;;;;;25.41;57.92;101588.81;6103647;23;19920;-76
2022/05/19 08:30:30;;;;;;;;;;;;;;;25.29;57.79;101590.41;6128763;23;19928;-80
2022/05/19 08:32:56;;;;;;;;;;;;;;;25.29;57.51;101601.13;6128087;23;19919;-84
2022/05/19 08:35:21;;;;;;;;;;;;;;;25.27;56.87;101600.38;6103933;23;19995;-77
2022/05/19 08:37:47;;;;;;;;;;;;;;;25.33;52.92;101612.56;6128771;23;20219;-79
2022/05/19 08:40:16;;;;;;;;;;;;;;;25.03;55.46;101619.69;6128207;23;19932;-80
2022/05/19 08:42:44;;;;;;;;;;;;;;;24.91;57.27;101609.69;6127705;23;19909;-74
2022/05/19 08:45:21;;;;;;;;;;;;;;;24.97;55.57;101612.03;6127304;23;19995;-77
2022/05/19 08:47:48;;;;;;;;;;;;;;;24.97;56.18;101601.31;6127037;23;19917;-75
2022/05/19 08:50:24;;;;;;;;;;;;;;;25.15;54.74;101587.72;6127995;23;20327;-75
2022/05/19 08:52:51;;;;;;;;;;;;;;;25.87;51.16;101601.97;6128005;23;19913;-77
2022/05/19 08:55:17;;;;;;;;;;;;;;;25.84;53.16;101595.97;6127072;23;19908;-77
2022/05/19 08:57:50;;;;;;;;;;;;;;;25.75;53.03;101594.72;6127813;23;19936;-76
2022/05/19 09:00:34;;;;;;;;;;;;;;;25.55;51.24;101594.16;6128930;23;19908;-78
2022/05/19 09:03:08;;;;;;;;;;;;;;;25.31;52.12;101575.09;6128213;23;19915;-76
2022/05/19 09:05:41;;;;;;;;;;;;;;;25.49;54.05;101570.41;6127919;23;20243;-74
2022/05/19 09:08:16;;;;;;;;;;;;;;;26.54;51.82;101577.03;6127241;23;19916;-78
2022/05/19 09:11:00;;;;;;;;;;;;;;;26.95;51.42;101577.84;6126491;23;20004;-79
2022/05/19 09:13:45;;;;;;;;;;;;;;;26.80;47.50;101571.72;6128010;23;19913;-76
2022/05/19 09:16:13;;;;;;;;;;;;;;;26.48;49.53;101566.69;6125802;23;19909;-78
2022/05/19 09:18:40;;;;;;;;;;;;;;;26.32;49.78;101568.69;6126782;23;20286;-74
2022/05/19 09:21:05;;;;;;;;;;;;;;;26.00;50.88;101571.66;6128171;23;20114;-78
2022/05/19 09:23:32;;;;;;;;;;;;;;;25.87;50.24;101568.91;6127297;23;20026;-75
2022/05/19 09:26:25;;;;;;;;;;;;;;;25.75;51.17;101571.41;6127482;23;19984;-75
2022/05/19 09:29:14;;;;;;;;;;;;;;;25.85;49.35;101574.38;6128077;23;19912;-76
2022/05/19 09:31:51;;;;;;;;;;;;;;;26.10;49.75;101564.75;6109472;23;20052;-76
2022/05/19 09:34:17;;;;;;;;;;;;;;;26.71;49.91;101557.09;6126052;23;19909;-75
2022/05/19 09:36:54;;;;;;;;;;;;;;;27.71;47.92;101561.75;6128504;23;19916;-78
2022/05/19 09:39:20;;;;;;;;;;;;;;;28.75;46.19;101560.31;6128075;23;20458;-75
2022/05/19 09:41:48;;;;;;;;;;;;;;;28.79;45.00;101556.41;6126965;23;20016;-79
2022/05/19 09:44:15;;;;;;;;;;;;;;;28.45;43.99;101561.69;6128221;23;19909;-76
2022/05/19 09:46:48;;;;;;;;;;;;;;;28.00;44.92;101560.50;6128229;23;19916;-79
2022/05/19 09:49:30;;;;;;;;;;;;;;;27.78;46.56;101563.03;6127514;23;19916;-76
2022/05/19 09:51:59;;;;;;;;;;;;;;;27.63;46.64;101552.41;6128151;23;19913;-74
2022/05/19 09:54:25;;;;;;;;;;;;;;;27.63;46.13;101560.50;6127894;23;19917;-74
2022/05/19 09:56:52;;;;;;;;;;;;;;;27.50;46.36;101559.69;6102195;23;19916;-78
2022/05/19 09:59:21;;;;;;;;;;;;;;;27.38;44.90;101558.72;6128046;23;19912;-80
2022/05/19 10:01:47;;;;;;;;;;;;;;;27.28;45.64;101545.03;6128197;23;19912;-75
2022/05/19 10:04:25;;;;;;;;;;;;;;;27.14;45.72;101539.78;6126038;23;19984;-78
2022/05/19 10:06:52;;;;;;;;;;;;;;;27.07;45.53;101539.34;6127127;23;19936;-75
2022/05/19 10:09:22;;;;;;;;;;;;;;;27.03;47.91;101531.63;6127755;23;19912;-76
2022/05/19 10:11:55;;;;;;;;;;;;;;;27.12;46.62;101525.56;6127241;23;19930;-74
2022/05/19 10:14:26;;;;;;;;;;;;;;;27.17;44.53;101527.94;6127510;23;19908;-73
2022/05/19 10:17:00;;;;;;;;;;;;;;;27.09;45.00;101518.56;6126896;23;19908;-76
2022/05/19 10:19:45;;;;;;;;;;;;;;;27.17;43.65;101499.22;6149892;23;19908;-78
2022/05/19 10:22:26;;;;;;;;;;;;;;;27.22;44.69;101488.97;6127138;23;19948;-82
2022/05/19 10:24:52;;;;;;;;;;;;;;;27.31;44.05;101482.94;6127535;23;20291;-79
2022/05/19 10:33:21;;;;;;;;;;;;;;;27.42;43.57;101486.69;6153799;23;19915;-76
2022/05/19 10:36:06;;;;;;;;;;;;;;;27.55;42.83;101487.50;6127520;23;19909;-76
2022/05/19 10:38:35;;;;;;;;;;;;;;;27.62;42.86;101482.53;6126468;23;19909;-76
2022/05/19 10:41:14;;;;;;;;;;;;;;;27.62;43.17;101479.84;6127217;23;20378;-76
2022/05/19 10:43:39;;;;;;;;;;;;;;;27.74;42.15;101491.53;6127460;23;19908;-80
2022/05/19 10:46:06;;;;;;;;;;;;;;;27.72;42.80;101485.41;6128176;23;19913;-80
2022/05/19 10:48:41;;;;;;;;;;;;;;;27.82;43.28;101486.44;6125935;23;19956;-78
2022/05/19 10:51:07;;;;;;;;;;;;;;;27.98;40.99;101491.56;6128019;23;19909;-75
2022/05/19 10:53:42;;;;;;;;;;;;;;;27.93;42.27;101496.38;6127925;23;19913;-77
2022/05/19 10:56:31;;;;;;;;;;;;;;;28.09;40.29;101488.06;6127815;23;19939;-81
2022/05/19 10:58:59;;;;;;;;;;;;;;;28.18;41.89;101481.97;6126255;23;19959;-75
2022/05/19 11:01:37;;;;;;;;;;;;;;;28.31;41.14;101473.81;6127708;23;19909;-74
2022/05/19 11:04:11;;;;;;;;;;;;;;;28.39;39.82;101475.88;6126316;23;19940;-75
2022/05/19 11:06:56;;;;;;;;;;;;;;;28.30;40.62;101469.38;6127849;23;19912;-81
2022/05/19 11:09:40;;;;;;;;;;;;;;;28.28;42.03;101477.59;6126219;23;20243;-77
2022/05/19 11:12:27;;;;;;;;;;;;;;;28.24;40.44;101478.78;6127407;23;20067;-77
2022/05/19 11:15:02;;;;;;;;;;;;;;;28.09;41.79;101477.28;6127550;23;19909;-79
2022/05/19 11:17:28;;;;;;;;;;;;;;;27.97;42.74;101473.63;6127485;23;19962;-77
2022/05/19 11:20:03;;;;;;;;;;;;;;;27.78;42.23;101472.34;6127289;23;20011;-78
2022/05/19 11:22:31;;;;;;;;;;;;;;;27.68;44.04;101460.53;6127431;23;19943;-78
2022/05/19 11:28:05;;;;;;;;;;;;;;;27.41;42.26;101471.50;6153760;23;19978;-76
2022/05/19 11:30:33;;;;;;;;;;;;;;;27.26;43.34;101476.16;6127754;23;20003;-79
2022/05/19 11:33:01;;;;;;;;;;;;;;;27.08;43.46;101471.16;6126281;23;19956;-77
2022/05/19 11:35:33;;;;;;;;;;;;;;;26.88;43.18;101488.72;6127438;23;20269;-73
2022/05/19 11:38:12;;;;;;;;;;;;;;;26.67;43.39;101487.50;6126436;23;19912;-75
2022/05/19 11:40:42;;;;;;;;;;;;;;;26.49;44.53;101485.09;6127636;23;20324;-81
2022/05/19 11:43:27;;;;;;;;;;;;;;;26.33;45.00;101490.66;6127064;23;19940;-78
2022/05/19 11:45:59;;;;;;;;;;;;;;;26.17;45.38;101480.09;6127586;23;20366;-78
2022/05/19 11:57:29;;;;;;;;;;;;;;;24.30;53.82;101782.88;6153891;23;20184;-79
2022/05/19 11:59:56;;;;;;;;;;;;;;;22.67;54.83;101783.06;6126415;23;20319;-76
2022/05/19 12:02:26;;;;;;;;;;;;;;;21.15;57.33;101787.06;6128655;23;19909;-76
2022/05/19 12:04:58;;;;;;;;;;;;;;;20.01;61.72;101726.69;6128056;23;19909;-77
2022/05/19 12:07:36;;;;;;;;;;;;;;;19.30;62.46;101721.19;6128321;23;19927;-73
2022/05/19 12:10:01;;;;;;;;;;;;;;;18.73;63.78;101688.53;6126945;23;19916;-76
2022/05/19 12:12:30;;;;;;;;;;;;;;;18.37;66.05;101695.88;6128900;23;19998;-77
2022/05/19 12:15:17;;;;;;;;;;;;;;;18.00;66.21;101709.34;6127909;23;19908;-76
2022/05/19 12:17:45;;;;;;;;;;;;;;;17.82;64.70;101717.78;6128566;23;20234;-75
2022/05/19 12:20:29;;;;;;;;;;;;;;;17.72;65.36;101732.22;6122385;23;20349;-76
2022/05/19 12:23:15;;;;;;;;;;;;;;;17.66;66.88;101725.28;6124514;23;20322;-75
2022/05/19 12:25:43;;;;;;;;;;;;;;;17.55;66.30;101727.34;6127289;23;19992;-74
2022/05/19 12:28:17;;;;;;;;;;;;;;;17.43;66.97;101708.22;6127521;23;20008;-76
2022/05/19 12:33:50;;;;;;;;;;;;;;;17.26;66.70;101668.94;6153994;23;19919;-77
2022/05/19 12:36:36;;;;;;;;;;;;;;;17.22;67.03;101693.75;6126972;23;19909;-75
2022/05/19 12:39:13;;;;;;;;;;;;;;;17.20;68.66;101681.50;6127239;23;19939;-78
2022/05/19 12:41:48;;;;;;;;;;;;;;;17.19;69.45;101693.84;6127854;23;20212;-74
2022/05/19 12:44:26;;;;;;;;;;;;;;;17.18;69.40;101709.78;6127648;23;19909;-75
2022/05/19 12:47:10;;;;;;;;;;;;;;;17.18;68.58;101721.22;6127941;23;19916;-77
2022/05/19 12:49:38;;;;;;;;;;;;;;;17.20;69.55;101727.38;6126997;23;19909;-76
2022/05/19 12:52:10;;;;;;;;;;;;;;;17.25;69.76;101711.34;6127381;23;19909;-77
2022/05/19 12:54:36;;;;;;;;;;;;;;;17.31;68.39;101714.72;6127645;23;19932;-76
2022/05/19 12:57:10;;;;;;;;;;;;;;;17.41;70.47;101706.53;6103643;23;19920;-76
2022/05/19 12:59:47;;;;;;;;;;;;;;;17.57;70.56;101688.41;6127225;23;19915;-77
2022/05/19 13:02:28;;;;;;;;;;;;;;;17.73;70.18;101672.97;6126871;23;19908;-77
2022/05/19 13:04:57;;;;;;;;;;;;;;;17.87;70.81;101699.97;6126406;23;19915;-77
2022/05/19 13:07:22;;;;;;;;;;;;;;;18.00;70.77;101722.59;6127988;23;19912;-78
2022/05/19 13:09:55;;;;;;;;;;;;;;;18.07;71.37;101747.13;6127708;23;20242;-78
2022/05/19 13:12:23;;;;;;;;;;;;;;;18.13;71.00;101764.66;6126931;23;19916;-79